Latest METARs, TAFs and NOTAMs for EGLF


---------------------------------------------------------------------------
	(OBSERVATIONS)
EGLF 230820Z 34008KT 3500 RA SCT004 BKN008 09/08 Q1015=
EGLF 230750Z 35006KT 3500 RA SCT003 BKN008 09/08 Q1014=
EGLF 230720Z 01008KT 3500 RA FEW003 BKN005 09/08 Q1013=
EGLF 230650Z 02006KT 3500 RA FEW003 BKN005 09/09 Q1013=
EGLF 230620Z NIL=
EGLF 230550Z NIL=
---------------------------------------------------------------------------
	(FC)
TAF EGLF 230754Z 2309/2318 36008KT 9999 SCT025 TEMPO 2309/2313 5000
    RADZ BKN012 PROB30 TEMPO 2309/2313 35015G25KT 3000 +RA BKN006=
---------------------------------------------------------------------------
	(TERMINAL AREA FORECAST)
EGLF 230754Z 2309/2318 36008KT 9999 SCT025
    TEMPO 2309/2313 5000 RADZ BKN012 PROB30
    TEMPO 2309/2313 35015G25KT 3000 +RA BKN006=
---------------------------------------------------------------------------
	(NOTAMS)


EGLF C4081/18 CRANE OPR AT PSN 511748N 0004509W (FARNBOROUGH).
    MAX HGT 129FT AGL/368FT AMSL. 0700-1900, 30 JUL 07:00 2018
    UNTIL 27 OCT 19:00 2018. CREATED: 23 JUL 11:15 2018

EGLF C4082/18 CRANE OPR AT PSN 511748N 0004509W (FARNBOROUGH)
    HGT 129FT AGL/368FT AMSL. 0800-2000, 28 OCT 08:00 2018 UNTIL
    30 OCT 20:00 2018. CREATED: 23 JUL 11:35 2018

EGLF C4336/18 TRIGGER NOTAM - PERM AIRAC AIP AMDT 10/2018 WEF
    13 SEP 18. FLIGHT PROCEDURES AMENDED. 13 SEP 00:00 2018 UNTIL
    27 SEP 23:59 2018. CREATED: 02 AUG 07:25 2018

EGLF C4956/18 LOCAL TRAFFIC REGULATIONS. 1 AIRPORT REGULATIONS.
    ADD NEW SUB PARAGRAPH (N) ENGINE START UTILISING CROSS BLEED
    AIR IS NOT AVAILABLE ON THE FOLLOWING APRONS/RAMPS: - - EAST
    APRON - HANGAR 1 - 6 RAMP - TOWER 4 - 6 RAMP - TERMINAL RAMP
    (EXCEPT FOR AIRCRAFT PARKED ON TERMINAL GRASS) EGLF AD 2.20
    REFERS. 03 SEP 16:22 2018 UNTIL PERM. CREATED: 03 SEP 16:22
    2018

---------------------------------------------------------------------------